createdAt,value
2022-07-29T00:02:16.167Z,92.15
2022-07-29T00:05:17.915Z,91.97
2022-07-29T00:08:20.001Z,92.01
2022-07-29T00:11:21.654Z,92.13
2022-07-29T00:14:23.182Z,92.75
2022-07-29T00:17:25.938Z,93.02
2022-07-29T00:20:27.592Z,93.18
2022-07-29T00:23:30.663Z,93.88
2022-07-29T00:26:32.752Z,94.24
2022-07-29T00:29:35.110Z,95.75
2022-07-29T00:32:36.974Z,95.95
2022-07-29T00:35:47.450Z,96.87
2022-07-29T00:38:50.359Z,96.53
2022-07-29T00:41:52.724Z,96.33
2022-07-29T00:44:54.894Z,96.33
2022-07-29T00:47:56.951Z,96.09
2022-07-29T00:50:59.427Z,96.17
2022-07-29T00:54:00.962Z,96.22
2022-07-29T00:57:02.983Z,95.98
2022-07-29T01:00:30.357Z,96.18
2022-07-29T01:03:31.986Z,96.97
2022-07-29T01:06:35.149Z,97.12
2022-07-29T01:09:46.392Z,97.79
2022-07-29T01:12:51.467Z,98.06
2022-07-29T01:15:59.472Z,98.36
2022-07-29T01:19:42.381Z,99.85
2022-07-29T01:23:05.660Z,100.00
2022-07-29T01:26:34.141Z,99.86
2022-07-29T01:29:56.324Z,99.86
2022-07-29T01:33:02.950Z,99.67
2022-07-29T01:36:11.655Z,99.51
2022-07-29T01:39:33.396Z,99.96
2022-07-29T01:42:43.875Z,99.92
2022-07-29T01:46:01.427Z,99.81
2022-07-29T01:49:11.294Z,99.19
2022-07-29T01:52:21.128Z,98.90
2022-07-29T01:55:28.254Z,99.35
2022-07-29T01:58:32.536Z,98.80
2022-07-29T02:01:35.890Z,98.96
2022-07-29T02:04:39.018Z,98.71
2022-07-29T02:07:43.059Z,98.97
2022-07-29T02:10:46.799Z,98.60
2022-07-29T02:13:49.873Z,98.52
2022-07-29T02:16:55.124Z,98.71
2022-07-29T02:20:00.734Z,97.87
2022-07-29T02:23:04.468Z,97.98
2022-07-29T02:26:08.325Z,98.29
2022-07-29T02:29:12.749Z,98.10
2022-07-29T02:32:16.971Z,98.68
2022-07-29T02:35:20.259Z,99.03
2022-07-29T02:38:42.059Z,99.09
2022-07-29T02:41:50.212Z,99.14
2022-07-29T02:44:52.453Z,98.96
2022-07-29T02:47:56.691Z,98.62
2022-07-29T02:51:08.050Z,98.65
2022-07-29T02:54:11.375Z,99.02
2022-07-29T02:57:23.803Z,98.98
2022-07-29T03:00:29.382Z,99.14
2022-07-29T03:03:37.884Z,99.13
2022-07-29T03:06:41.586Z,99.20
2022-07-29T03:09:43.985Z,99.29
2022-07-29T03:12:46.530Z,99.01
2022-07-29T03:15:48.762Z,99.21
2022-07-29T03:18:51.498Z,99.13
2022-07-29T03:21:53.554Z,99.80
2022-07-29T03:24:55.093Z,99.22
2022-07-29T03:27:57.425Z,99.06
2022-07-29T03:30:59.067Z,99.24
2022-07-29T03:34:00.840Z,99.08
2022-07-29T03:37:02.447Z,98.80
2022-07-29T03:40:08.196Z,98.69
2022-07-29T03:43:12.164Z,98.13
2022-07-29T03:46:17.494Z,98.46
2022-07-29T03:49:21.233Z,98.61
2022-07-29T03:52:23.482Z,99.23
2022-07-29T03:55:26.637Z,99.34
2022-07-29T03:58:29.628Z,100.00
2022-07-29T04:01:34.624Z,100.00
2022-07-29T04:04:42.185Z,99.93
2022-07-29T04:07:50.933Z,99.85
2022-07-29T04:10:53.436Z,100.00
2022-07-29T04:13:54.988Z,99.62
2022-07-29T04:16:56.643Z,99.63
2022-07-29T04:20:02.987Z,99.92
2022-07-29T04:23:09.143Z,100.00
2022-07-29T04:26:22.198Z,99.97
2022-07-29T04:29:29.251Z,99.72
2022-07-29T04:32:30.878Z,99.40
2022-07-29T04:35:38.119Z,98.54
2022-07-29T04:38:48.635Z,98.50
2022-07-29T04:41:56.357Z,99.08
2022-07-29T04:44:58.105Z,98.28
2022-07-29T04:48:03.009Z,98.14
2022-07-29T04:51:04.650Z,99.54
2022-07-29T04:54:07.128Z,98.66
2022-07-29T04:57:08.793Z,97.72
2022-07-29T05:00:10.939Z,97.86
2022-07-29T05:03:12.735Z,98.93
2022-07-29T05:06:14.542Z,98.51
2022-07-29T05:09:16.201Z,98.16
2022-07-29T05:12:17.906Z,98.31
2022-07-29T05:15:19.610Z,97.95
2022-07-29T05:18:26.105Z,98.46
2022-07-29T05:21:27.980Z,98.07
2022-07-29T05:24:29.662Z,97.73
2022-07-29T05:27:31.244Z,97.65
2022-07-29T05:30:32.993Z,97.73
2022-07-29T05:33:37.093Z,97.29
2022-07-29T05:36:38.938Z,96.74
2022-07-29T05:39:48.799Z,96.79
2022-07-29T05:42:51.973Z,96.78
2022-07-29T05:45:58.519Z,95.74
2022-07-29T05:49:00.230Z,95.56
2022-07-29T05:52:01.926Z,94.57
2022-07-29T05:55:05.282Z,95.94
2022-07-29T05:58:06.893Z,95.22
2022-07-29T06:01:08.623Z,94.87
2022-07-29T06:04:10.297Z,93.81
2022-07-29T06:07:12.370Z,94.11
2022-07-29T06:10:14.173Z,93.25
2022-07-29T06:13:18.846Z,91.83
2022-07-29T06:16:26.171Z,91.36
2022-07-29T06:19:32.051Z,90.62
2022-07-29T06:22:33.710Z,90.41
2022-07-29T06:25:38.657Z,91.34
2022-07-29T06:28:41.001Z,91.00
2022-07-29T06:31:42.894Z,91.11
2022-07-29T06:34:46.295Z,89.17
2022-07-29T06:37:50.649Z,89.52
2022-07-29T06:41:06.920Z,90.65
2022-07-29T06:44:08.543Z,90.70
2022-07-29T06:47:10.619Z,90.55
2022-07-29T06:50:13.428Z,91.47
2022-07-29T06:53:14.966Z,91.48
2022-07-29T06:56:16.499Z,90.68
2022-07-29T06:59:18.126Z,91.26
2022-07-29T07:02:19.715Z,89.56
2022-07-29T07:05:21.394Z,90.08
2022-07-29T07:08:24.528Z,89.38
2022-07-29T07:11:26.201Z,87.74
2022-07-29T07:14:28.935Z,86.33
2022-07-29T07:17:30.571Z,86.86
2022-07-29T07:20:32.934Z,87.85
2022-07-29T07:23:34.668Z,86.59
2022-07-29T07:26:36.289Z,85.36
2022-07-29T07:29:37.955Z,83.85
2022-07-29T07:32:39.651Z,84.09
2022-07-29T07:35:42.277Z,84.63
2022-07-29T07:38:43.786Z,84.80
2022-07-29T07:41:45.313Z,83.42
2022-07-29T07:45:12.248Z,83.67
2022-07-29T07:48:11.074Z,81.15
2022-07-29T07:51:12.767Z,82.03
2022-07-29T07:54:14.627Z,82.27
2022-07-29T07:57:17.343Z,81.34
2022-07-29T08:00:19.016Z,80.03
2022-07-29T08:03:24.868Z,79.38
2022-07-29T08:06:26.656Z,80.44
2022-07-29T08:09:30.664Z,80.39
2022-07-29T08:12:32.392Z,80.03
2022-07-29T08:15:34.009Z,78.98
2022-07-29T08:18:35.589Z,78.80
2022-07-29T08:21:37.576Z,79.89
2022-07-29T08:24:45.172Z,81.30
2022-07-29T08:27:47.605Z,80.97
2022-07-29T08:30:49.269Z,78.21
2022-07-29T08:33:57.123Z,79.08
2022-07-29T08:37:01.958Z,76.40
2022-07-29T08:40:04.091Z,77.26
2022-07-29T08:43:09.250Z,78.33
2022-07-29T08:46:11.021Z,77.50
2022-07-29T08:49:12.984Z,76.81
2022-07-29T08:52:15.872Z,75.34
2022-07-29T08:55:21.442Z,74.66
2022-07-29T08:58:24.739Z,73.97
2022-07-29T09:01:35.546Z,73.28
2022-07-29T09:04:39.078Z,73.29
2022-07-29T09:07:40.974Z,73.98
2022-07-29T09:10:43.622Z,72.82
2022-07-29T09:13:45.305Z,71.70
2022-07-29T09:17:01.319Z,73.62
2022-07-29T09:20:13.781Z,72.58
2022-07-29T09:23:23.123Z,70.64
2022-07-29T09:26:30.624Z,71.36
2022-07-29T09:29:36.124Z,72.55
2022-07-29T09:32:58.337Z,71.75
2022-07-29T09:36:07.808Z,71.35
2022-07-29T09:39:09.713Z,69.49
2022-07-29T09:42:11.446Z,70.50
2022-07-29T09:45:26.807Z,69.47
2022-07-29T09:48:28.338Z,69.05
2022-07-29T09:51:38.115Z,69.09
2022-07-29T09:54:40.256Z,67.51
2022-07-29T09:57:41.937Z,66.49
2022-07-29T10:00:43.990Z,65.01
2022-07-29T10:03:54.867Z,64.67
2022-07-29T10:07:04.740Z,64.64
2022-07-29T10:10:07.286Z,64.43
2022-07-29T10:13:15.430Z,64.97
2022-07-29T10:16:18.882Z,63.67
2022-07-29T10:19:21.075Z,62.25
2022-07-29T10:22:50.812Z,61.00
2022-07-29T10:25:46.841Z,61.14
2022-07-29T10:28:48.998Z,61.58
2022-07-29T10:32:06.521Z,60.99
2022-07-29T10:35:36.139Z,61.86
2022-07-29T10:39:03.626Z,62.03
2022-07-29T10:42:20.024Z,61.23
2022-07-29T10:45:22.408Z,60.55
2022-07-29T10:48:24.900Z,60.38
2022-07-29T10:51:26.504Z,60.99
2022-07-29T10:54:49.258Z,58.81
2022-07-29T10:58:14.629Z,57.79
2022-07-29T11:01:37.210Z,58.44
2022-07-29T11:04:47.174Z,59.17
2022-07-29T11:08:20.389Z,60.36
2022-07-29T11:11:29.500Z,57.29
2022-07-29T11:14:53.176Z,57.36
2022-07-29T11:17:54.683Z,57.38
2022-07-29T11:20:56.204Z,57.15
2022-07-29T11:24:18.629Z,56.06
2022-07-29T11:27:40.532Z,54.13
2022-07-29T11:30:54.123Z,55.23
2022-07-29T11:40:42.559Z,53.48
2022-07-29T11:43:50.655Z,52.55
2022-07-29T11:46:53.976Z,51.04
2022-07-29T11:49:58.154Z,51.74
2022-07-29T11:53:03.199Z,49.88
2022-07-29T11:56:17.108Z,48.09
2022-07-29T11:59:20.478Z,46.82
2022-07-29T12:02:38.275Z,46.64
2022-07-29T12:05:48.182Z,46.78
2022-07-29T12:07:03.340Z,55.63
2022-07-29T12:07:03.797Z,56.73
2022-07-29T12:08:53.476Z,47.22
2022-07-29T12:12:04.653Z,46.06
2022-07-29T12:15:18.893Z,43.54
2022-07-29T12:18:24.164Z,43.64
2022-07-29T12:21:26.706Z,44.54
2022-07-29T12:24:43.957Z,43.94
2022-07-29T12:27:47.848Z,44.93
2022-07-29T12:30:51.747Z,44.93
2022-07-29T12:33:54.695Z,45.47
2022-07-29T12:36:57.270Z,45.50
2022-07-29T12:39:59.014Z,45.20
2022-07-29T12:43:18.935Z,45.58
2022-07-29T12:46:20.887Z,45.79
2022-07-29T12:49:23.512Z,46.28
2022-07-29T12:52:31.076Z,46.87
2022-07-29T12:55:46.024Z,46.83
2022-07-29T12:58:51.119Z,47.01
2022-07-29T13:01:53.550Z,46.88
2022-07-29T13:04:59.734Z,46.65
2022-07-29T13:08:20.448Z,45.84
2022-07-29T13:11:46.539Z,44.86
2022-07-29T13:14:51.236Z,44.20
2022-07-29T13:17:52.725Z,43.06
2022-07-29T13:20:54.711Z,42.98
2022-07-29T13:23:56.273Z,43.54
2022-07-29T13:26:58.364Z,43.58
2022-07-29T13:30:01.738Z,43.45
2022-07-29T13:33:03.544Z,44.40
2022-07-29T13:36:05.225Z,44.76
2022-07-29T13:39:06.822Z,44.72
2022-07-29T13:42:11.113Z,44.60
2022-07-29T13:45:12.885Z,44.43
2022-07-29T13:48:14.414Z,44.88
2022-07-29T13:51:15.958Z,44.98
2022-07-29T13:54:17.732Z,44.87
2022-07-29T13:57:19.258Z,45.07
2022-07-29T14:00:20.909Z,44.85
2022-07-29T14:03:22.509Z,44.70
2022-07-29T14:06:24.107Z,44.99
2022-07-29T14:09:25.692Z,44.38
2022-07-29T14:12:27.216Z,45.08
2022-07-29T14:15:28.753Z,45.20
2022-07-29T14:18:30.371Z,45.46
2022-07-29T14:21:31.892Z,45.71
2022-07-29T14:24:37.206Z,44.61
2022-07-29T14:27:39.206Z,43.90
2022-07-29T14:30:40.878Z,43.55
2022-07-29T14:33:43.510Z,43.17
2022-07-29T14:36:47.961Z,43.86
2022-07-29T14:39:49.503Z,43.65
2022-07-29T14:42:51.059Z,43.53
2022-07-29T14:45:54.240Z,42.67
2022-07-29T14:48:58.835Z,41.76
2022-07-29T14:52:00.745Z,41.25
2022-07-29T14:55:03.593Z,41.18
2022-07-29T14:58:10.891Z,41.30
2022-07-29T15:01:15.173Z,42.19
2022-07-29T15:04:17.437Z,42.35
2022-07-29T15:07:19.012Z,42.63
2022-07-29T15:10:20.941Z,43.16
2022-07-29T15:13:22.464Z,42.60
2022-07-29T15:16:24.979Z,41.83
2022-07-29T15:19:26.622Z,41.48
2022-07-29T15:22:28.460Z,42.39
2022-07-29T15:25:30.050Z,42.54
2022-07-29T15:28:31.688Z,42.72
2022-07-29T15:31:33.285Z,42.72
2022-07-29T15:34:35.633Z,42.93
2022-07-29T15:37:48.515Z,42.93
2022-07-29T15:40:51.015Z,43.44
2022-07-29T15:43:52.537Z,43.58
2022-07-29T15:47:09.066Z,44.16
2022-07-29T15:50:15.962Z,44.71
2022-07-29T15:53:17.628Z,45.53
2022-07-29T15:56:19.400Z,47.38
2022-07-29T15:59:22.723Z,49.13
2022-07-29T16:02:24.446Z,49.70
2022-07-29T16:05:26.291Z,50.55
2022-07-29T16:08:27.898Z,51.23
2022-07-29T16:11:29.540Z,52.02
2022-07-29T16:14:31.173Z,52.60
2022-07-29T16:17:32.805Z,52.76
2022-07-29T16:20:34.640Z,53.20
2022-07-29T16:23:36.188Z,53.25
2022-07-29T16:26:37.776Z,53.57
2022-07-29T16:29:39.623Z,54.43
2022-07-29T16:32:41.205Z,50.75
2022-07-29T16:35:44.026Z,50.54
2022-07-29T16:38:47.321Z,49.36
2022-07-29T16:41:49.302Z,50.23
2022-07-29T16:44:50.906Z,52.59
2022-07-29T16:48:00.220Z,55.42
2022-07-29T16:51:02.535Z,57.26
2022-07-29T16:54:04.418Z,59.67
2022-07-29T16:57:06.020Z,61.38
2022-07-29T17:00:08.217Z,63.80
2022-07-29T17:03:10.174Z,65.99
2022-07-29T17:06:11.840Z,68.29
2022-07-29T17:09:16.541Z,70.15
2022-07-29T17:12:18.743Z,73.70
2022-07-29T17:15:20.390Z,73.41
2022-07-29T17:18:21.881Z,75.81
2022-07-29T17:21:24.756Z,75.59
2022-07-29T17:24:26.621Z,76.34
2022-07-29T17:27:28.422Z,77.95
2022-07-29T17:30:30.073Z,79.29
2022-07-29T17:33:31.606Z,80.33
2022-07-29T17:36:33.575Z,81.02
2022-07-29T17:39:36.160Z,82.63
2022-07-29T17:42:37.654Z,82.85
2022-07-29T17:45:48.741Z,83.84
2022-07-29T17:48:52.305Z,85.04
2022-07-29T17:51:57.670Z,84.88
2022-07-29T17:55:02.633Z,84.71
2022-07-29T17:58:04.217Z,84.72
2022-07-29T18:01:05.869Z,85.29
2022-07-29T18:04:08.707Z,85.75
2022-07-29T18:07:10.537Z,85.87
2022-07-29T18:10:12.217Z,86.58
2022-07-29T18:13:13.865Z,87.12
2022-07-29T18:16:15.462Z,88.33
2022-07-29T18:19:17.147Z,88.78
2022-07-29T18:22:19.387Z,89.30
2022-07-29T18:25:21.040Z,90.07
2022-07-29T18:28:22.644Z,89.95
2022-07-29T18:31:24.300Z,90.29
2022-07-29T18:34:25.897Z,90.30
2022-07-29T18:38:00.637Z,91.66
2022-07-29T18:40:49.059Z,91.49
2022-07-29T18:43:50.536Z,92.75
2022-07-29T18:46:52.376Z,93.03
2022-07-29T18:49:53.973Z,91.12
2022-07-29T18:52:56.557Z,91.66
2022-07-29T18:56:00.282Z,91.71
2022-07-29T18:59:02.982Z,92.87
2022-07-29T19:02:04.714Z,92.31
2022-07-29T19:05:08.198Z,92.71
2022-07-29T19:08:09.861Z,93.68
2022-07-29T19:11:16.881Z,93.79
2022-07-29T19:14:18.553Z,94.52
2022-07-29T19:17:20.427Z,94.58
2022-07-29T19:20:22.155Z,93.98
2022-07-29T19:23:23.789Z,94.91
2022-07-29T19:26:26.222Z,95.51
2022-07-29T19:29:28.103Z,95.87
2022-07-29T19:32:29.748Z,95.61
2022-07-29T19:35:31.584Z,96.14
2022-07-29T19:38:33.238Z,96.35
2022-07-29T19:41:35.000Z,96.96
2022-07-29T19:44:36.905Z,97.17
2022-07-29T19:47:38.657Z,97.55
2022-07-29T19:50:40.469Z,97.31
2022-07-29T19:53:44.841Z,97.94
2022-07-29T19:56:46.518Z,97.93
2022-07-29T19:59:48.194Z,97.79
2022-07-29T20:02:51.809Z,97.89
2022-07-29T20:05:53.576Z,97.50
2022-07-29T20:08:58.783Z,97.78
2022-07-29T20:12:00.771Z,98.64
2022-07-29T20:15:02.468Z,98.23
2022-07-29T20:18:04.732Z,97.96
2022-07-29T20:21:06.357Z,98.64
2022-07-29T20:24:08.658Z,98.37
2022-07-29T20:27:13.595Z,98.35
2022-07-29T20:30:15.548Z,98.81
2022-07-29T20:33:19.435Z,99.02
2022-07-29T20:36:24.287Z,99.12
2022-07-29T20:39:25.970Z,99.07
2022-07-29T20:42:27.580Z,99.98
2022-07-29T20:45:29.244Z,100.00
2022-07-29T20:48:30.925Z,99.62
2022-07-29T20:51:32.569Z,100.00
2022-07-29T20:54:46.304Z,100.00
2022-07-29T20:57:47.917Z,100.00
2022-07-29T21:00:49.514Z,99.58
2022-07-29T21:03:51.149Z,99.75
2022-07-29T21:06:53.301Z,100.00
2022-07-29T21:09:54.979Z,100.00
2022-07-29T21:12:56.626Z,99.88
2022-07-29T21:16:01.995Z,99.01
2022-07-29T21:19:05.889Z,98.88
2022-07-29T21:22:07.486Z,99.15
2022-07-29T21:25:10.777Z,98.75
2022-07-29T21:28:27.784Z,98.59
2022-07-29T21:31:30.648Z,98.45
2022-07-29T21:34:32.238Z,99.04
2022-07-29T21:37:33.975Z,98.97
2022-07-29T21:40:35.509Z,98.56
2022-07-29T21:43:37.170Z,99.08
2022-07-29T21:46:43.780Z,98.65
2022-07-29T21:49:46.414Z,98.90
2022-07-29T21:52:48.148Z,99.25
2022-07-29T21:55:56.793Z,99.99
2022-07-29T21:58:58.437Z,98.91
2022-07-29T22:02:02.900Z,98.62
2022-07-29T22:05:04.611Z,98.28
2022-07-29T22:08:06.793Z,98.42
2022-07-29T22:11:08.350Z,98.12
2022-07-29T22:14:09.918Z,98.50
2022-07-29T22:17:11.459Z,98.52
2022-07-29T22:20:13.392Z,99.08
2022-07-29T22:23:14.922Z,99.52
2022-07-29T22:26:16.500Z,99.91
2022-07-29T22:29:18.883Z,100.00
2022-07-29T22:32:20.427Z,99.97
2022-07-29T22:35:21.949Z,100.00
2022-07-29T22:38:23.567Z,100.00
2022-07-29T22:41:25.100Z,100.00
2022-07-29T22:44:26.725Z,100.00
2022-07-29T22:47:39.006Z,100.00
2022-07-29T22:50:48.233Z,100.00
2022-07-29T22:53:49.886Z,100.00
2022-07-29T22:56:51.394Z,100.00
2022-07-29T22:59:52.943Z,100.00
2022-07-29T23:02:54.549Z,100.00
2022-07-29T23:05:56.124Z,99.95
2022-07-29T23:08:57.735Z,99.75
2022-07-29T23:11:59.339Z,100.00
2022-07-29T23:15:00.934Z,100.00
2022-07-29T23:18:02.446Z,99.30
2022-07-29T23:21:04.140Z,100.00
2022-07-29T23:24:05.890Z,100.00
2022-07-29T23:27:07.469Z,100.00
2022-07-29T23:30:09.593Z,100.00
2022-07-29T23:33:11.152Z,100.00
2022-07-29T23:36:12.788Z,100.00
2022-07-29T23:39:14.624Z,100.00
2022-07-29T23:42:16.134Z,100.00
2022-07-29T23:45:17.898Z,100.00
2022-07-29T23:48:20.711Z,100.00
2022-07-29T23:51:22.244Z,100.00
2022-07-29T23:54:23.806Z,100.00
2022-07-29T23:57:29.061Z,99.78
